PWSweather.com
Personal Weather Stations
Station Observations
SELKIRK1
Ontario, Selkirk, ON N0A 1P0

OntarioSelkirk, ON N0A 1P0

Lat: 42.8083652, Lon: -79.94971040000001

Elevation: 583

Station Type: Acurite 5 in 1

http://gavinsurf.com

High Low Average
Temperature 77.7°F25.4°C 52.4°F11.3°C 66.7°F19.3°C
Dew Point 67.3°F19.6°C 50.2°F10.1°C 58.8°F14.9°C
Winds 4.6 mph 7.4 kmh Calm Calm 2.0 mph E3.2 kmh E
Wind Gusts 8.1 mph13.0 kmh -- 2.0 mph3.2 kmh
Humidity 99% 60% 76%
Pressure 31.86 in1078.9 mb 31.86 in1078.9 mb -
Precipitation 0.00 in0.0 mm - -
Hour Temp Dew Point Humidity Winds Wind Gusts Pressure Precip Precip Rate Daily Precip Total
12:00 AM 56.5°F13.6°C 55.1°F12.8°C 95% 2.3 mph N3.7 kmh N 2.3 mph3.7 kmh 31.86 in1078.9 mb - 0.00 in0.0 mm 0.00 in0.0 mm
12:10 AM 56.5°F13.6°C 55.4°F13.0°C 96% 2.3 mph N3.7 kmh N 2.3 mph3.7 kmh 31.86 in1078.9 mb - 0.00 in0.0 mm 0.00 in0.0 mm
12:15 AM 56.5°F13.6°C 55.4°F13.0°C 96% Calm Calm -- 31.86 in1078.9 mb - 0.00 in0.0 mm 0.00 in0.0 mm
12:20 AM 56.9°F13.8°C 54.9°F12.7°C 93% Calm Calm -- 31.86 in1078.9 mb - 0.00 in0.0 mm 0.00 in0.0 mm
12:25 AM 57.7°F14.3°C 54.2°F12.3°C 88% Calm Calm -- 31.86 in1078.9 mb - 0.00 in0.0 mm 0.00 in0.0 mm
12:30 AM 58.2°F14.6°C 54.0°F12.2°C 86% Calm Calm -- 31.86 in1078.9 mb - 0.00 in0.0 mm 0.00 in0.0 mm
12:35 AM 58.5°F14.7°C 53.7°F12.1°C 84% Calm Calm -- 31.86 in1078.9 mb - 0.00 in0.0 mm 0.00 in0.0 mm
12:40 AM 59.1°F15.1°C 53.3°F11.8°C 81% Calm Calm -- 31.86 in1078.9 mb - 0.00 in0.0 mm 0.00 in0.0 mm
12:45 AM 59.2°F15.1°C 53.4°F11.9°C 81% Calm Calm -- 31.86 in1078.9 mb - 0.00 in0.0 mm 0.00 in0.0 mm
12:50 AM 58.8°F14.9°C 53.0°F11.7°C 81% Calm Calm -- 31.86 in1078.9 mb - 0.00 in0.0 mm 0.00 in0.0 mm
12:55 AM 59.1°F15.1°C 52.5°F11.4°C 79% Calm Calm -- 31.86 in1078.9 mb - 0.00 in0.0 mm 0.00 in0.0 mm
01:00 AM 59.7°F15.4°C 52.8°F11.6°C 78% Calm Calm -- 31.86 in1078.9 mb - 0.00 in0.0 mm 0.00 in0.0 mm
01:10 AM 59.2°F15.1°C 52.0°F11.1°C 77% Calm Calm -- 31.86 in1078.9 mb - 0.00 in0.0 mm 0.00 in0.0 mm
01:15 AM 59.4°F15.2°C 51.8°F11.0°C 76% Calm Calm -- 31.86 in1078.9 mb - 0.00 in0.0 mm 0.00 in0.0 mm
01:20 AM 59.3°F15.2°C 51.4°F10.8°C 75% Calm Calm -- 31.86 in1078.9 mb - 0.00 in0.0 mm 0.00 in0.0 mm
01:25 AM 59.0°F15.0°C 51.1°F10.6°C 75% Calm Calm -- 31.86 in1078.9 mb - 0.00 in0.0 mm 0.00 in0.0 mm
01:30 AM 59.0°F15.0°C 51.1°F10.6°C 75% Calm Calm -- 31.86 in1078.9 mb - 0.00 in0.0 mm 0.00 in0.0 mm
01:35 AM 59.1°F15.1°C 50.8°F10.4°C 74% Calm Calm -- 31.86 in1078.9 mb - 0.00 in0.0 mm 0.00 in0.0 mm
01:40 AM 59.0°F15.0°C 50.7°F10.4°C 74% Calm Calm -- 31.86 in1078.9 mb - 0.00 in0.0 mm 0.00 in0.0 mm
01:45 AM 59.1°F15.1°C 50.8°F10.4°C 74% Calm Calm -- 31.86 in1078.9 mb - 0.00 in0.0 mm 0.00 in0.0 mm
01:50 AM 58.9°F14.9°C 50.6°F10.3°C 74% Calm Calm -- 31.86 in1078.9 mb - 0.00 in0.0 mm 0.00 in0.0 mm
01:55 AM 58.3°F14.6°C 50.4°F10.2°C 75% Calm Calm -- 31.86 in1078.9 mb - 0.00 in0.0 mm 0.00 in0.0 mm
02:00 AM 58.1°F14.5°C 50.2°F10.1°C 75% Calm Calm -- 31.86 in1078.9 mb - 0.00 in0.0 mm 0.00 in0.0 mm
02:10 AM 57.9°F14.4°C 50.4°F10.2°C 76% Calm Calm -- 31.86 in1078.9 mb - 0.00 in0.0 mm 0.00 in0.0 mm
02:15 AM 57.9°F14.4°C 51.4°F10.8°C 79% Calm Calm -- 31.86 in1078.9 mb - 0.00 in0.0 mm 0.00 in0.0 mm
02:20 AM 57.2°F14.0°C 51.4°F10.8°C 81% 1.2 mph NNE1.9 kmh NNE 1.2 mph1.9 kmh 31.86 in1078.9 mb - 0.00 in0.0 mm 0.00 in0.0 mm
02:25 AM 57.0°F13.9°C 50.9°F10.5°C 80% Calm Calm -- 31.86 in1078.9 mb - 0.00 in0.0 mm 0.00 in0.0 mm
02:30 AM 57.6°F14.2°C 51.1°F10.6°C 79% Calm Calm -- 31.86 in1078.9 mb - 0.00 in0.0 mm 0.00 in0.0 mm
02:35 AM 58.3°F14.6°C 51.8°F11.0°C 79% Calm Calm -- 31.86 in1078.9 mb - 0.00 in0.0 mm 0.00 in0.0 mm
02:40 AM 58.0°F14.4°C 51.5°F10.8°C 79% Calm Calm -- 31.86 in1078.9 mb - 0.00 in0.0 mm 0.00 in0.0 mm
02:45 AM 57.9°F14.4°C 51.7°F10.9°C 80% Calm Calm -- 31.86 in1078.9 mb - 0.00 in0.0 mm 0.00 in0.0 mm
02:50 AM 57.6°F14.2°C 51.8°F11.0°C 81% Calm Calm -- 31.86 in1078.9 mb - 0.00 in0.0 mm 0.00 in0.0 mm
02:55 AM 57.4°F14.1°C 52.3°F11.3°C 83% Calm Calm -- 31.86 in1078.9 mb - 0.00 in0.0 mm 0.00 in0.0 mm
03:00 AM 57.2°F14.0°C 52.4°F11.3°C 84% Calm Calm -- 31.86 in1078.9 mb - 0.00 in0.0 mm 0.00 in0.0 mm
03:10 AM 57.9°F14.4°C 53.4°F11.9°C 85% Calm Calm -- 31.86 in1078.9 mb - 0.00 in0.0 mm 0.00 in0.0 mm
03:15 AM 57.6°F14.2°C 53.4°F11.9°C 86% Calm Calm -- 31.86 in1078.9 mb - 0.00 in0.0 mm 0.00 in0.0 mm
03:20 AM 57.6°F14.2°C 53.7°F12.1°C 87% Calm Calm -- 31.86 in1078.9 mb - 0.00 in0.0 mm 0.00 in0.0 mm
03:25 AM 57.4°F14.1°C 53.9°F12.2°C 88% Calm Calm -- 31.86 in1078.9 mb - 0.00 in0.0 mm 0.00 in0.0 mm
03:30 AM 57.2°F14.0°C 54.3°F12.4°C 90% Calm Calm -- 31.86 in1078.9 mb - 0.00 in0.0 mm 0.00 in0.0 mm
03:35 AM 57.6°F14.2°C 54.7°F12.6°C 90% Calm Calm -- 31.86 in1078.9 mb - 0.00 in0.0 mm 0.00 in0.0 mm
03:40 AM 57.8°F14.3°C 55.2°F12.9°C 91% Calm Calm -- 31.86 in1078.9 mb - 0.00 in0.0 mm 0.00 in0.0 mm
03:45 AM 57.0°F13.9°C 54.4°F12.4°C 91% 2.3 mph NNE3.7 kmh NNE 2.3 mph3.7 kmh 31.86 in1078.9 mb - 0.00 in0.0 mm 0.00 in0.0 mm
03:50 AM 56.6°F13.7°C 54.3°F12.4°C 92% 1.2 mph NNE1.9 kmh NNE 1.2 mph1.9 kmh 31.86 in1078.9 mb - 0.00 in0.0 mm 0.00 in0.0 mm
03:55 AM 56.8°F13.8°C 54.5°F12.5°C 92% 1.2 mph NNE1.9 kmh NNE 3.5 mph5.6 kmh 31.86 in1078.9 mb - 0.00 in0.0 mm 0.00 in0.0 mm
04:00 AM 57.3°F14.1°C 55.0°F12.8°C 92% Calm Calm -- 31.86 in1078.9 mb - 0.00 in0.0 mm 0.00 in0.0 mm
04:10 AM 57.9°F14.4°C 55.3°F12.9°C 91% 1.2 mph NNE1.9 kmh NNE 1.2 mph1.9 kmh 31.86 in1078.9 mb - 0.00 in0.0 mm 0.00 in0.0 mm
04:15 AM 57.9°F14.4°C 55.3°F12.9°C 91% 1.2 mph NNE1.9 kmh NNE 2.3 mph3.7 kmh 31.86 in1078.9 mb - 0.00 in0.0 mm 0.00 in0.0 mm
04:20 AM 58.0°F14.4°C 55.1°F12.8°C 90% 1.2 mph NNE1.9 kmh NNE 1.2 mph1.9 kmh 31.86 in1078.9 mb - 0.00 in0.0 mm 0.00 in0.0 mm
04:25 AM 57.8°F14.3°C 54.9°F12.7°C 90% Calm Calm -- 31.86 in1078.9 mb - 0.00 in0.0 mm 0.00 in0.0 mm
04:30 AM 57.4°F14.1°C 54.8°F12.7°C 91% 1.2 mph NNE1.9 kmh NNE 4.6 mph7.4 kmh 31.86 in1078.9 mb - 0.00 in0.0 mm 0.00 in0.0 mm
04:35 AM 57.3°F14.1°C 54.7°F12.6°C 91% Calm Calm -- 31.86 in1078.9 mb - 0.00 in0.0 mm 0.00 in0.0 mm
04:40 AM 56.7°F13.7°C 54.1°F12.3°C 91% Calm Calm -- 31.86 in1078.9 mb - 0.00 in0.0 mm 0.00 in0.0 mm
04:45 AM 56.7°F13.7°C 54.4°F12.4°C 92% Calm Calm 2.3 mph3.7 kmh 31.86 in1078.9 mb - 0.00 in0.0 mm 0.00 in0.0 mm
04:50 AM 56.7°F13.7°C 54.4°F12.4°C 92% Calm Calm -- 31.86 in1078.9 mb - 0.00 in0.0 mm 0.00 in0.0 mm
04:55 AM 56.2°F13.4°C 53.9°F12.2°C 92% 1.2 mph N1.9 kmh N 1.2 mph1.9 kmh 31.86 in1078.9 mb - 0.00 in0.0 mm 0.00 in0.0 mm
05:00 AM 56.0°F13.3°C 53.7°F12.1°C 92% Calm Calm -- 31.86 in1078.9 mb - 0.00 in0.0 mm 0.00 in0.0 mm
05:10 AM 54.9°F12.7°C 53.2°F11.8°C 94% Calm Calm 1.2 mph1.9 kmh 31.86 in1078.9 mb - 0.00 in0.0 mm 0.00 in0.0 mm
05:15 AM 54.6°F12.6°C 52.9°F11.6°C 94% 1.2 mph N1.9 kmh N 1.2 mph1.9 kmh 31.86 in1078.9 mb - 0.00 in0.0 mm 0.00 in0.0 mm
05:20 AM 53.9°F12.2°C 52.5°F11.4°C 95% 2.3 mph N3.7 kmh N 2.3 mph3.7 kmh 31.86 in1078.9 mb - 0.00 in0.0 mm 0.00 in0.0 mm
05:25 AM 53.7°F12.1°C 52.6°F11.4°C 96% Calm Calm 1.2 mph1.9 kmh 31.86 in1078.9 mb - 0.00 in0.0 mm 0.00 in0.0 mm
05:30 AM 53.3°F11.8°C 52.5°F11.4°C 97% 2.3 mph NNE3.7 kmh NNE 2.3 mph3.7 kmh 31.86 in1078.9 mb - 0.00 in0.0 mm 0.00 in0.0 mm
05:35 AM 52.9°F11.6°C 52.3°F11.3°C 98% 1.2 mph N1.9 kmh N 1.2 mph1.9 kmh 31.86 in1078.9 mb - 0.00 in0.0 mm 0.00 in0.0 mm
05:40 AM 52.7°F11.5°C 52.1°F11.2°C 98% Calm Calm -- 31.86 in1078.9 mb - 0.00 in0.0 mm 0.00 in0.0 mm
05:45 AM 52.7°F11.5°C 52.1°F11.2°C 98% Calm Calm -- 31.86 in1078.9 mb - 0.00 in0.0 mm 0.00 in0.0 mm
05:50 AM 52.4°F11.3°C 52.1°F11.2°C 99% 1.2 mph N1.9 kmh N 2.3 mph3.7 kmh 31.86 in1078.9 mb - 0.00 in0.0 mm 0.00 in0.0 mm
05:55 AM 52.5°F11.4°C 52.2°F11.2°C 99% Calm Calm -- 31.86 in1078.9 mb - 0.00 in0.0 mm 0.00 in0.0 mm
06:00 AM 52.5°F11.4°C 52.2°F11.2°C 99% Calm Calm -- 31.86 in1078.9 mb - 0.00 in0.0 mm 0.00 in0.0 mm
06:10 AM 52.7°F11.5°C 52.4°F11.3°C 99% Calm Calm -- 31.86 in1078.9 mb - 0.00 in0.0 mm 0.00 in0.0 mm
06:15 AM 52.5°F11.4°C 52.2°F11.2°C 99% 1.2 mph N1.9 kmh N 2.3 mph3.7 kmh 31.86 in1078.9 mb - 0.00 in0.0 mm 0.00 in0.0 mm
06:20 AM 52.6°F11.4°C 52.4°F11.3°C 99% Calm Calm -- 31.86 in1078.9 mb - 0.00 in0.0 mm 0.00 in0.0 mm
06:25 AM 52.8°F11.6°C 52.5°F11.4°C 99% Calm Calm -- 31.86 in1078.9 mb - 0.00 in0.0 mm 0.00 in0.0 mm
06:30 AM 53.9°F12.2°C 53.3°F11.8°C 98% Calm Calm -- 31.86 in1078.9 mb - 0.00 in0.0 mm 0.00 in0.0 mm
06:35 AM 54.4°F12.4°C 53.3°F11.8°C 96% Calm Calm -- 31.86 in1078.9 mb - 0.00 in0.0 mm 0.00 in0.0 mm
06:40 AM 55.0°F12.8°C 53.9°F12.2°C 96% Calm Calm -- 31.86 in1078.9 mb - 0.00 in0.0 mm 0.00 in0.0 mm
06:45 AM 55.1°F12.8°C 53.7°F12.1°C 95% Calm Calm -- 31.86 in1078.9 mb - 0.00 in0.0 mm 0.00 in0.0 mm
06:50 AM 55.4°F13.0°C 54.0°F12.2°C 95% Calm Calm -- 31.86 in1078.9 mb - 0.00 in0.0 mm 0.00 in0.0 mm
06:55 AM 55.8°F13.2°C 54.1°F12.3°C 94% 1.2 mph NNE1.9 kmh NNE 1.2 mph1.9 kmh 31.86 in1078.9 mb - 0.00 in0.0 mm 0.00 in0.0 mm
07:00 AM 56.4°F13.6°C 54.4°F12.4°C 93% Calm Calm -- 31.86 in1078.9 mb - 0.00 in0.0 mm 0.00 in0.0 mm
07:10 AM 57.3°F14.1°C 55.0°F12.8°C 92% Calm Calm -- 31.86 in1078.9 mb - 0.00 in0.0 mm 0.00 in0.0 mm
07:15 AM 57.5°F14.2°C 55.2°F12.9°C 92% Calm Calm -- 31.86 in1078.9 mb - 0.00 in0.0 mm 0.00 in0.0 mm
07:20 AM 58.2°F14.6°C 55.9°F13.3°C 92% Calm Calm -- 31.86 in1078.9 mb - 0.00 in0.0 mm 0.00 in0.0 mm
07:25 AM 58.7°F14.8°C 56.1°F13.4°C 91% Calm Calm -- 31.86 in1078.9 mb - 0.00 in0.0 mm 0.00 in0.0 mm
07:30 AM 59.2°F15.1°C 56.2°F13.4°C 90% Calm Calm -- 31.86 in1078.9 mb - 0.00 in0.0 mm 0.00 in0.0 mm
07:35 AM 59.4°F15.2°C 56.8°F13.8°C 91% Calm Calm -- 31.86 in1078.9 mb - 0.00 in0.0 mm 0.00 in0.0 mm
07:40 AM 59.9°F15.5°C 57.2°F14.0°C 91% Calm Calm -- 31.86 in1078.9 mb - 0.00 in0.0 mm 0.00 in0.0 mm
07:45 AM 60.5°F15.8°C 57.8°F14.3°C 91% Calm Calm -- 31.86 in1078.9 mb - 0.00 in0.0 mm 0.00 in0.0 mm
07:50 AM 60.9°F16.1°C 57.9°F14.4°C 90% Calm Calm 1.2 mph1.9 kmh 31.86 in1078.9 mb - 0.00 in0.0 mm 0.00 in0.0 mm
07:55 AM 61.5°F16.4°C 57.9°F14.4°C 88% 1.2 mph NNE1.9 kmh NNE 2.3 mph3.7 kmh 31.86 in1078.9 mb - 0.00 in0.0 mm 0.00 in0.0 mm
08:00 AM 62.6°F17.0°C 57.7°F14.3°C 84% 2.3 mph NNE3.7 kmh NNE 3.5 mph5.6 kmh 31.86 in1078.9 mb - 0.00 in0.0 mm 0.00 in0.0 mm
08:10 AM 63.7°F17.6°C 57.0°F13.9°C 79% 3.5 mph ESE5.6 kmh ESE 3.5 mph5.6 kmh 31.86 in1078.9 mb - 0.00 in0.0 mm 0.00 in0.0 mm
08:15 AM 64.1°F17.8°C 56.7°F13.7°C 77% 3.5 mph ESE5.6 kmh ESE 4.6 mph7.4 kmh 31.86 in1078.9 mb - 0.00 in0.0 mm 0.00 in0.0 mm
08:20 AM 63.9°F17.7°C 56.9°F13.8°C 78% 3.5 mph ESE5.6 kmh ESE 3.5 mph5.6 kmh 31.86 in1078.9 mb - 0.00 in0.0 mm 0.00 in0.0 mm
08:25 AM 64.0°F17.8°C 56.7°F13.7°C 77% 3.5 mph ESE5.6 kmh ESE 4.6 mph7.4 kmh 31.86 in1078.9 mb - 0.00 in0.0 mm 0.00 in0.0 mm
08:30 AM 64.1°F17.8°C 56.7°F13.7°C 77% 3.5 mph ESE5.6 kmh ESE 4.6 mph7.4 kmh 31.86 in1078.9 mb - 0.00 in0.0 mm 0.00 in0.0 mm
08:35 AM 63.9°F17.7°C 56.5°F13.6°C 77% 3.5 mph SE5.6 kmh SE 5.8 mph9.3 kmh 31.86 in1078.9 mb - 0.00 in0.0 mm 0.00 in0.0 mm
08:40 AM 64.0°F17.8°C 56.3°F13.5°C 76% 2.3 mph E3.7 kmh E 2.3 mph3.7 kmh 31.86 in1078.9 mb - 0.00 in0.0 mm 0.00 in0.0 mm
08:45 AM 64.6°F18.1°C 56.5°F13.6°C 75% 2.3 mph E3.7 kmh E 3.5 mph5.6 kmh 31.86 in1078.9 mb - 0.00 in0.0 mm 0.00 in0.0 mm
08:50 AM 64.8°F18.2°C 56.3°F13.5°C 74% 2.3 mph E3.7 kmh E 3.5 mph5.6 kmh 31.86 in1078.9 mb - 0.00 in0.0 mm 0.00 in0.0 mm
08:55 AM 65.0°F18.3°C 55.7°F13.2°C 72% 2.3 mph ESE3.7 kmh ESE 3.5 mph5.6 kmh 31.86 in1078.9 mb - 0.00 in0.0 mm 0.00 in0.0 mm
09:00 AM 65.1°F18.4°C 55.8°F13.2°C 72% 3.5 mph ESE5.6 kmh ESE 8.1 mph13.0 kmh 31.86 in1078.9 mb - 0.00 in0.0 mm 0.00 in0.0 mm
09:10 AM 65.7°F18.7°C 56.0°F13.3°C 71% 3.5 mph SE5.6 kmh SE 3.5 mph5.6 kmh 31.86 in1078.9 mb - 0.00 in0.0 mm 0.00 in0.0 mm
09:15 AM 65.7°F18.7°C 56.4°F13.6°C 72% 2.3 mph E3.7 kmh E 3.5 mph5.6 kmh 31.86 in1078.9 mb - 0.00 in0.0 mm 0.00 in0.0 mm
09:20 AM 65.9°F18.8°C 57.0°F13.9°C 73% 3.5 mph E5.6 kmh E 3.5 mph5.6 kmh 31.86 in1078.9 mb - 0.00 in0.0 mm 0.00 in0.0 mm
09:25 AM 66.1°F18.9°C 56.8°F13.8°C 72% 2.3 mph E3.7 kmh E 2.3 mph3.7 kmh 31.86 in1078.9 mb - 0.00 in0.0 mm 0.00 in0.0 mm
09:30 AM 66.1°F18.9°C 56.8°F13.8°C 72% 3.5 mph ESE5.6 kmh ESE 4.6 mph7.4 kmh 31.86 in1078.9 mb - 0.00 in0.0 mm 0.00 in0.0 mm
09:35 AM 66.0°F18.9°C 57.1°F13.9°C 73% 2.3 mph ESE3.7 kmh ESE 2.3 mph3.7 kmh 31.86 in1078.9 mb - 0.00 in0.0 mm 0.00 in0.0 mm
09:40 AM 65.9°F18.8°C 57.4°F14.1°C 74% 3.5 mph E5.6 kmh E 3.5 mph5.6 kmh 31.86 in1078.9 mb - 0.00 in0.0 mm 0.00 in0.0 mm
09:45 AM 65.7°F18.7°C 56.8°F13.8°C 73% 2.3 mph ESE3.7 kmh ESE 3.5 mph5.6 kmh 31.86 in1078.9 mb - 0.00 in0.0 mm 0.00 in0.0 mm
09:50 AM 65.9°F18.8°C 57.4°F14.1°C 74% 2.3 mph E3.7 kmh E 3.5 mph5.6 kmh 31.86 in1078.9 mb - 0.00 in0.0 mm 0.00 in0.0 mm
09:55 AM 65.7°F18.7°C 56.8°F13.8°C 73% 3.5 mph E5.6 kmh E 3.5 mph5.6 kmh 31.86 in1078.9 mb - 0.00 in0.0 mm 0.00 in0.0 mm
10:00 AM 65.8°F18.8°C 57.3°F14.1°C 74% 3.5 mph ESE5.6 kmh ESE 3.5 mph5.6 kmh 31.86 in1078.9 mb - 0.00 in0.0 mm 0.00 in0.0 mm
10:10 AM 66.3°F19.1°C 57.3°F14.1°C 73% 2.3 mph SE3.7 kmh SE 2.3 mph3.7 kmh 31.86 in1078.9 mb - 0.00 in0.0 mm 0.00 in0.0 mm
10:15 AM 66.4°F19.1°C 56.7°F13.7°C 71% 3.5 mph E5.6 kmh E 3.5 mph5.6 kmh 31.86 in1078.9 mb - 0.00 in0.0 mm 0.00 in0.0 mm
10:20 AM 66.7°F19.3°C 57.0°F13.9°C 71% 3.5 mph E5.6 kmh E 3.5 mph5.6 kmh 31.86 in1078.9 mb - 0.00 in0.0 mm 0.00 in0.0 mm
10:25 AM 66.8°F19.3°C 57.9°F14.4°C 73% 3.5 mph E5.6 kmh E 3.5 mph5.6 kmh 31.86 in1078.9 mb - 0.00 in0.0 mm 0.00 in0.0 mm
10:30 AM 66.6°F19.2°C 57.3°F14.1°C 72% 3.5 mph E5.6 kmh E 4.6 mph7.4 kmh 31.86 in1078.9 mb - 0.00 in0.0 mm 0.00 in0.0 mm
10:35 AM 66.6°F19.2°C 56.9°F13.8°C 71% 4.6 mph ESE7.4 kmh ESE 4.6 mph7.4 kmh 31.86 in1078.9 mb - 0.00 in0.0 mm 0.00 in0.0 mm
10:40 AM 66.4°F19.1°C 56.3°F13.5°C 70% 3.5 mph ESE5.6 kmh ESE 3.5 mph5.6 kmh 31.86 in1078.9 mb - 0.00 in0.0 mm 0.00 in0.0 mm
10:45 AM 67.1°F19.5°C 58.5°F14.7°C 74% 3.5 mph E5.6 kmh E 3.5 mph5.6 kmh 31.86 in1078.9 mb - 0.00 in0.0 mm 0.00 in0.0 mm
10:50 AM 67.3°F19.6°C 57.9°F14.4°C 72% 3.5 mph ESE5.6 kmh ESE 4.6 mph7.4 kmh 31.86 in1078.9 mb - 0.00 in0.0 mm 0.00 in0.0 mm
10:55 AM 67.2°F19.6°C 57.4°F14.1°C 71% 3.5 mph SE5.6 kmh SE 4.6 mph7.4 kmh 31.86 in1078.9 mb - 0.00 in0.0 mm 0.00 in0.0 mm
11:00 AM 66.8°F19.3°C 57.1°F13.9°C 71% 3.5 mph ESE5.6 kmh ESE 3.5 mph5.6 kmh 31.86 in1078.9 mb - 0.00 in0.0 mm 0.00 in0.0 mm
11:10 AM 66.9°F19.4°C 56.8°F13.8°C 70% 3.5 mph ESE5.6 kmh ESE 3.5 mph5.6 kmh 31.86 in1078.9 mb - 0.00 in0.0 mm 0.00 in0.0 mm
11:15 AM 67.3°F19.6°C 57.2°F14.0°C 70% 3.5 mph SE5.6 kmh SE 3.5 mph5.6 kmh 31.86 in1078.9 mb - 0.00 in0.0 mm 0.00 in0.0 mm
11:20 AM 67.3°F19.6°C 57.2°F14.0°C 70% 3.5 mph SE5.6 kmh SE 3.5 mph5.6 kmh 31.86 in1078.9 mb - 0.00 in0.0 mm 0.00 in0.0 mm
11:25 AM 67.5°F19.7°C 57.3°F14.1°C 70% 3.5 mph ESE5.6 kmh ESE 5.8 mph9.3 kmh 31.86 in1078.9 mb - 0.00 in0.0 mm 0.00 in0.0 mm
11:30 AM 67.5°F19.7°C 56.5°F13.6°C 68% 3.5 mph E5.6 kmh E 4.6 mph7.4 kmh 31.86 in1078.9 mb - 0.00 in0.0 mm 0.00 in0.0 mm
11:35 AM 67.7°F19.8°C 58.3°F14.6°C 72% 3.5 mph ESE5.6 kmh ESE 4.6 mph7.4 kmh 31.86 in1078.9 mb - 0.00 in0.0 mm 0.00 in0.0 mm
11:40 AM 67.7°F19.8°C 57.9°F14.4°C 71% 3.5 mph E5.6 kmh E 4.6 mph7.4 kmh 31.86 in1078.9 mb - 0.00 in0.0 mm 0.00 in0.0 mm
11:45 AM 67.8°F19.9°C 57.6°F14.2°C 70% 3.5 mph ESE5.6 kmh ESE 3.5 mph5.6 kmh 31.86 in1078.9 mb - 0.00 in0.0 mm 0.00 in0.0 mm
11:50 AM 68.6°F20.3°C 59.2°F15.1°C 72% 3.5 mph ESE5.6 kmh ESE 3.5 mph5.6 kmh 31.86 in1078.9 mb - 0.00 in0.0 mm 0.00 in0.0 mm
11:55 AM 68.0°F20.0°C 57.8°F14.3°C 70% 3.5 mph SE5.6 kmh SE 3.5 mph5.6 kmh 31.86 in1078.9 mb - 0.00 in0.0 mm 0.00 in0.0 mm
12:00 PM 68.4°F20.2°C 58.2°F14.6°C 70% 3.5 mph ESE5.6 kmh ESE 4.6 mph7.4 kmh 31.86 in1078.9 mb - 0.00 in0.0 mm 0.00 in0.0 mm
12:10 PM 69.2°F20.7°C 60.1°F15.6°C 73% 3.5 mph SE5.6 kmh SE 3.5 mph5.6 kmh 31.86 in1078.9 mb - 0.00 in0.0 mm 0.00 in0.0 mm
12:15 PM 69.1°F20.6°C 59.3°F15.2°C 71% 3.5 mph E5.6 kmh E 4.6 mph7.4 kmh 31.86 in1078.9 mb - 0.00 in0.0 mm 0.00 in0.0 mm
12:20 PM 69.3°F20.7°C 59.9°F15.5°C 72% 3.5 mph E5.6 kmh E 5.8 mph9.3 kmh 31.86 in1078.9 mb - 0.00 in0.0 mm 0.00 in0.0 mm
12:25 PM 69.2°F20.7°C 58.2°F14.6°C 68% 3.5 mph E5.6 kmh E 4.6 mph7.4 kmh 31.86 in1078.9 mb - 0.00 in0.0 mm 0.00 in0.0 mm
12:30 PM 69.3°F20.7°C 59.5°F15.3°C 71% 3.5 mph E5.6 kmh E 4.6 mph7.4 kmh 31.86 in1078.9 mb - 0.00 in0.0 mm 0.00 in0.0 mm
12:35 PM 69.1°F20.6°C 58.5°F14.7°C 69% 3.5 mph E5.6 kmh E 3.5 mph5.6 kmh 31.86 in1078.9 mb - 0.00 in0.0 mm 0.00 in0.0 mm
12:40 PM 69.4°F20.8°C 60.0°F15.6°C 72% 3.5 mph ESE5.6 kmh ESE 4.6 mph7.4 kmh 31.86 in1078.9 mb - 0.00 in0.0 mm 0.00 in0.0 mm
12:45 PM 69.6°F20.9°C 58.1°F14.5°C 67% 3.5 mph E5.6 kmh E 5.8 mph9.3 kmh 31.86 in1078.9 mb - 0.00 in0.0 mm 0.00 in0.0 mm
12:50 PM 70.2°F21.2°C 60.8°F16.0°C 72% 3.5 mph E5.6 kmh E 3.5 mph5.6 kmh 31.86 in1078.9 mb - 0.00 in0.0 mm 0.00 in0.0 mm
12:55 PM 69.6°F20.9°C 59.4°F15.2°C 70% 3.5 mph ESE5.6 kmh ESE 4.6 mph7.4 kmh 31.86 in1078.9 mb - 0.00 in0.0 mm 0.00 in0.0 mm
01:00 PM 70.0°F21.1°C 58.5°F14.7°C 67% 3.5 mph ESE5.6 kmh ESE 4.6 mph7.4 kmh 31.86 in1078.9 mb - 0.00 in0.0 mm 0.00 in0.0 mm
01:10 PM 70.6°F21.4°C 60.7°F15.9°C 71% 2.3 mph ESE3.7 kmh ESE 3.5 mph5.6 kmh 31.86 in1078.9 mb - 0.00 in0.0 mm 0.00 in0.0 mm
01:15 PM 70.7°F21.5°C 61.2°F16.2°C 72% 2.3 mph E3.7 kmh E 3.5 mph5.6 kmh 31.86 in1078.9 mb - 0.00 in0.0 mm 0.00 in0.0 mm
01:20 PM 70.9°F21.6°C 61.4°F16.3°C 72% 3.5 mph E5.6 kmh E 3.5 mph5.6 kmh 31.86 in1078.9 mb - 0.00 in0.0 mm 0.00 in0.0 mm
01:25 PM 70.6°F21.4°C 59.9°F15.5°C 69% 3.5 mph E5.6 kmh E 4.6 mph7.4 kmh 31.86 in1078.9 mb - 0.00 in0.0 mm 0.00 in0.0 mm
01:30 PM 71.3°F21.8°C 61.8°F16.6°C 72% 3.5 mph ESE5.6 kmh ESE 3.5 mph5.6 kmh 31.86 in1078.9 mb - 0.00 in0.0 mm 0.00 in0.0 mm
01:35 PM 71.3°F21.8°C 61.8°F16.6°C 72% 3.5 mph ESE5.6 kmh ESE 4.6 mph7.4 kmh 31.86 in1078.9 mb - 0.00 in0.0 mm 0.00 in0.0 mm
01:40 PM 71.4°F21.9°C 61.5°F16.4°C 71% 3.5 mph SE5.6 kmh SE 4.6 mph7.4 kmh 31.86 in1078.9 mb - 0.00 in0.0 mm 0.00 in0.0 mm
01:45 PM 71.3°F21.8°C 61.8°F16.6°C 72% 3.5 mph ESE5.6 kmh ESE 3.5 mph5.6 kmh 31.86 in1078.9 mb - 0.00 in0.0 mm 0.00 in0.0 mm
01:50 PM 71.3°F21.8°C 61.8°F16.6°C 72% 2.3 mph ESE3.7 kmh ESE 4.6 mph7.4 kmh 31.86 in1078.9 mb - 0.00 in0.0 mm 0.00 in0.0 mm
01:55 PM 71.6°F22.0°C 62.5°F16.9°C 73% 2.3 mph SE3.7 kmh SE 2.3 mph3.7 kmh 31.86 in1078.9 mb - 0.00 in0.0 mm 0.00 in0.0 mm
02:00 PM 72.2°F22.3°C 63.4°F17.4°C 74% 3.5 mph E5.6 kmh E 4.6 mph7.4 kmh 31.86 in1078.9 mb - 0.00 in0.0 mm 0.00 in0.0 mm
02:10 PM 72.5°F22.5°C 63.3°F17.4°C 73% 3.5 mph ESE5.6 kmh ESE 2.3 mph3.7 kmh 31.86 in1078.9 mb - 0.00 in0.0 mm 0.00 in0.0 mm
02:15 PM 71.4°F21.9°C 62.7°F17.1°C 74% 2.3 mph E3.7 kmh E 4.6 mph7.4 kmh 31.86 in1078.9 mb - 0.00 in0.0 mm 0.00 in0.0 mm
02:20 PM 70.9°F21.6°C 62.9°F17.2°C 76% 2.3 mph E3.7 kmh E 5.8 mph9.3 kmh 31.86 in1078.9 mb - 0.00 in0.0 mm 0.00 in0.0 mm
02:25 PM 70.9°F21.6°C 62.6°F17.0°C 75% 3.5 mph ESE5.6 kmh ESE 3.5 mph5.6 kmh 31.86 in1078.9 mb - 0.00 in0.0 mm 0.00 in0.0 mm
02:30 PM 70.8°F21.6°C 62.1°F16.7°C 74% 2.3 mph E3.7 kmh E 3.5 mph5.6 kmh 31.86 in1078.9 mb - 0.00 in0.0 mm 0.00 in0.0 mm
02:35 PM 71.3°F21.8°C 62.6°F17.0°C 74% 2.3 mph E3.7 kmh E 3.5 mph5.6 kmh 31.86 in1078.9 mb - 0.00 in0.0 mm 0.00 in0.0 mm
02:40 PM 72.2°F22.3°C 62.7°F17.1°C 72% 2.3 mph ESE3.7 kmh ESE 2.3 mph3.7 kmh 31.86 in1078.9 mb - 0.00 in0.0 mm 0.00 in0.0 mm
02:45 PM 73.1°F22.8°C 63.2°F17.3°C 71% 2.3 mph ESE3.7 kmh ESE 2.3 mph3.7 kmh 31.86 in1078.9 mb - 0.00 in0.0 mm 0.00 in0.0 mm
02:50 PM 73.1°F22.8°C 63.1°F17.3°C 71% 2.3 mph ESE3.7 kmh ESE 3.5 mph5.6 kmh 31.86 in1078.9 mb - 0.00 in0.0 mm 0.00 in0.0 mm
02:55 PM 73.5°F23.1°C 64.3°F17.9°C 73% 2.3 mph E3.7 kmh E 2.3 mph3.7 kmh 31.86 in1078.9 mb - 0.00 in0.0 mm 0.00 in0.0 mm
03:00 PM 73.2°F22.9°C 61.6°F16.4°C 67% 2.3 mph ESE3.7 kmh ESE 3.5 mph5.6 kmh 31.86 in1078.9 mb - 0.00 in0.0 mm 0.00 in0.0 mm
03:10 PM 74.0°F23.3°C 61.9°F16.6°C 66% 2.3 mph E3.7 kmh E 2.3 mph3.7 kmh 31.86 in1078.9 mb - 0.00 in0.0 mm 0.00 in0.0 mm
03:15 PM 74.4°F23.6°C 61.5°F16.4°C 64% 2.3 mph E3.7 kmh E 2.3 mph3.7 kmh 31.86 in1078.9 mb - 0.00 in0.0 mm 0.00 in0.0 mm
03:20 PM 74.2°F23.4°C 61.7°F16.5°C 65% 2.3 mph ESE3.7 kmh ESE 3.5 mph5.6 kmh 31.86 in1078.9 mb - 0.00 in0.0 mm 0.00 in0.0 mm
03:25 PM 74.2°F23.4°C 62.5°F16.9°C 67% 2.3 mph ESE3.7 kmh ESE 2.3 mph3.7 kmh 31.86 in1078.9 mb - 0.00 in0.0 mm 0.00 in0.0 mm
03:30 PM 74.0°F23.3°C 61.5°F16.4°C 65% 3.5 mph ESE5.6 kmh ESE 4.6 mph7.4 kmh 31.86 in1078.9 mb - 0.00 in0.0 mm 0.00 in0.0 mm
03:35 PM 73.9°F23.3°C 62.2°F16.8°C 67% 2.3 mph ESE3.7 kmh ESE 2.3 mph3.7 kmh 31.86 in1078.9 mb - 0.00 in0.0 mm 0.00 in0.0 mm
03:40 PM 74.0°F23.3°C 63.6°F17.6°C 70% 2.3 mph E3.7 kmh E 2.3 mph3.7 kmh 31.86 in1078.9 mb - 0.00 in0.0 mm 0.00 in0.0 mm
03:45 PM 74.1°F23.4°C 62.8°F17.1°C 68% 2.3 mph E3.7 kmh E 3.5 mph5.6 kmh 31.86 in1078.9 mb - 0.00 in0.0 mm 0.00 in0.0 mm
03:50 PM 74.8°F23.8°C 61.4°F16.3°C 63% 2.3 mph ESE3.7 kmh ESE 2.3 mph3.7 kmh 31.86 in1078.9 mb - 0.00 in0.0 mm 0.00 in0.0 mm
03:55 PM 75.4°F24.1°C 60.6°F15.9°C 60% 2.3 mph SE3.7 kmh SE 2.3 mph3.7 kmh 31.86 in1078.9 mb - 0.00 in0.0 mm 0.00 in0.0 mm
04:00 PM 75.9°F24.4°C 61.5°F16.4°C 61% 2.3 mph ESE3.7 kmh ESE 3.5 mph5.6 kmh 31.86 in1078.9 mb - 0.00 in0.0 mm 0.00 in0.0 mm
04:10 PM 76.7°F24.8°C 61.7°F16.5°C 60% 2.3 mph E3.7 kmh E 2.3 mph3.7 kmh 31.86 in1078.9 mb - 0.00 in0.0 mm 0.00 in0.0 mm
04:15 PM 77.3°F25.2°C 62.3°F16.8°C 60% 2.3 mph E3.7 kmh E 4.6 mph7.4 kmh 31.86 in1078.9 mb - 0.00 in0.0 mm 0.00 in0.0 mm
04:20 PM 76.8°F24.9°C 62.3°F16.8°C 61% 2.3 mph E3.7 kmh E 2.3 mph3.7 kmh 31.86 in1078.9 mb - 0.00 in0.0 mm 0.00 in0.0 mm
04:25 PM 76.8°F24.9°C 62.3°F16.8°C 61% 3.5 mph E5.6 kmh E 3.5 mph5.6 kmh 31.86 in1078.9 mb - 0.00 in0.0 mm 0.00 in0.0 mm
04:30 PM 77.2°F25.1°C 62.7°F17.1°C 61% 2.3 mph E3.7 kmh E 2.3 mph3.7 kmh 31.86 in1078.9 mb - 0.00 in0.0 mm 0.00 in0.0 mm
04:35 PM 77.0°F25.0°C 62.5°F16.9°C 61% 2.3 mph ESE3.7 kmh ESE 3.5 mph5.6 kmh 31.86 in1078.9 mb - 0.00 in0.0 mm 0.00 in0.0 mm
04:40 PM 76.8°F24.9°C 62.3°F16.8°C 61% 2.3 mph ESE3.7 kmh ESE 2.3 mph3.7 kmh 31.86 in1078.9 mb - 0.00 in0.0 mm 0.00 in0.0 mm
04:45 PM 76.7°F24.8°C 61.8°F16.6°C 60% 2.3 mph ESE3.7 kmh ESE 3.5 mph5.6 kmh 31.86 in1078.9 mb - 0.00 in0.0 mm 0.00 in0.0 mm
04:50 PM 76.9°F24.9°C 63.3°F17.4°C 63% 2.3 mph ESE3.7 kmh ESE 2.3 mph3.7 kmh 31.86 in1078.9 mb - 0.00 in0.0 mm 0.00 in0.0 mm
04:55 PM 76.5°F24.7°C 63.4°F17.4°C 64% 2.3 mph SE3.7 kmh SE 2.3 mph3.7 kmh 31.86 in1078.9 mb - 0.00 in0.0 mm 0.00 in0.0 mm
05:00 PM 76.0°F24.4°C 64.2°F17.9°C 67% 2.3 mph ESE3.7 kmh ESE 2.3 mph3.7 kmh 31.86 in1078.9 mb - 0.00 in0.0 mm 0.00 in0.0 mm
05:10 PM 76.0°F24.4°C 63.8°F17.7°C 66% 2.3 mph ESE3.7 kmh ESE 2.3 mph3.7 kmh 31.86 in1078.9 mb - 0.00 in0.0 mm 0.00 in0.0 mm
05:15 PM 76.0°F24.4°C 63.0°F17.2°C 64% 2.3 mph E3.7 kmh E 3.5 mph5.6 kmh 31.86 in1078.9 mb - 0.00 in0.0 mm 0.00 in0.0 mm
05:20 PM 76.8°F24.9°C 63.7°F17.6°C 64% 2.3 mph ESE3.7 kmh ESE 2.3 mph3.7 kmh 31.86 in1078.9 mb - 0.00 in0.0 mm 0.00 in0.0 mm
05:25 PM 76.8°F24.9°C 62.3°F16.8°C 61% 2.3 mph E3.7 kmh E 2.3 mph3.7 kmh 31.86 in1078.9 mb - 0.00 in0.0 mm 0.00 in0.0 mm
05:30 PM 77.5°F25.3°C 63.9°F17.7°C 63% 2.3 mph ESE3.7 kmh ESE 2.3 mph3.7 kmh 31.86 in1078.9 mb - 0.00 in0.0 mm 0.00 in0.0 mm
05:35 PM 77.7°F25.4°C 64.1°F17.8°C 63% 2.3 mph ESE3.7 kmh ESE 3.5 mph5.6 kmh 31.86 in1078.9 mb - 0.00 in0.0 mm 0.00 in0.0 mm
05:40 PM 77.1°F25.1°C 62.6°F17.0°C 61% 2.3 mph ESE3.7 kmh ESE 3.5 mph5.6 kmh 31.86 in1078.9 mb - 0.00 in0.0 mm 0.00 in0.0 mm
05:45 PM 77.2°F25.1°C 62.7°F17.1°C 61% 2.3 mph ESE3.7 kmh ESE 3.5 mph5.6 kmh 31.86 in1078.9 mb - 0.00 in0.0 mm 0.00 in0.0 mm
05:50 PM 77.2°F25.1°C 62.7°F17.1°C 61% 2.3 mph ESE3.7 kmh ESE 2.3 mph3.7 kmh 31.86 in1078.9 mb - 0.00 in0.0 mm 0.00 in0.0 mm
05:55 PM 77.3°F25.2°C 63.2°F17.3°C 62% 2.3 mph ESE3.7 kmh ESE 3.5 mph5.6 kmh 31.86 in1078.9 mb - 0.00 in0.0 mm 0.00 in0.0 mm
06:00 PM 77.0°F25.0°C 62.5°F16.9°C 61% 2.3 mph ESE3.7 kmh ESE 2.3 mph3.7 kmh 31.86 in1078.9 mb - 0.00 in0.0 mm 0.00 in0.0 mm
06:10 PM 77.3°F25.2°C 63.3°F17.4°C 62% 2.3 mph E3.7 kmh E 2.3 mph3.7 kmh 31.86 in1078.9 mb - 0.00 in0.0 mm 0.00 in0.0 mm
06:15 PM 77.2°F25.1°C 62.7°F17.1°C 61% 2.3 mph E3.7 kmh E 2.3 mph3.7 kmh 31.86 in1078.9 mb - 0.00 in0.0 mm 0.00 in0.0 mm
06:20 PM 77.1°F25.1°C 62.6°F17.0°C 61% 3.5 mph E5.6 kmh E 3.5 mph5.6 kmh 31.86 in1078.9 mb - 0.00 in0.0 mm 0.00 in0.0 mm
06:25 PM 76.8°F24.9°C 63.2°F17.3°C 63% 3.5 mph E5.6 kmh E 3.5 mph5.6 kmh 31.86 in1078.9 mb - 0.00 in0.0 mm 0.00 in0.0 mm
06:30 PM 77.0°F25.0°C 63.9°F17.7°C 64% 3.5 mph ESE5.6 kmh ESE 3.5 mph5.6 kmh 31.86 in1078.9 mb - 0.00 in0.0 mm 0.00 in0.0 mm
06:35 PM 77.1°F25.1°C 67.0°F19.4°C 71% 2.3 mph ENE3.7 kmh ENE 2.3 mph3.7 kmh 31.86 in1078.9 mb - 0.00 in0.0 mm 0.00 in0.0 mm
06:40 PM 77.2°F25.1°C 67.0°F19.4°C 71% 2.3 mph E3.7 kmh E 3.5 mph5.6 kmh 31.86 in1078.9 mb - 0.00 in0.0 mm 0.00 in0.0 mm
06:45 PM 77.0°F25.0°C 66.4°F19.1°C 70% 3.5 mph E5.6 kmh E 3.5 mph5.6 kmh 31.86 in1078.9 mb - 0.00 in0.0 mm 0.00 in0.0 mm
06:50 PM 77.0°F25.0°C 67.3°F19.6°C 72% 2.3 mph ENE3.7 kmh ENE 2.3 mph3.7 kmh 31.86 in1078.9 mb - 0.00 in0.0 mm 0.00 in0.0 mm
06:55 PM 76.7°F24.8°C 67.0°F19.4°C 72% 2.3 mph E3.7 kmh E 3.5 mph5.6 kmh 31.86 in1078.9 mb - 0.00 in0.0 mm 0.00 in0.0 mm
07:00 PM 76.2°F24.6°C 64.8°F18.2°C 68% 3.5 mph E5.6 kmh E 4.6 mph7.4 kmh 31.86 in1078.9 mb - 0.00 in0.0 mm 0.00 in0.0 mm
07:10 PM 75.4°F24.1°C 64.9°F18.3°C 70% 3.5 mph E5.6 kmh E 3.5 mph5.6 kmh 31.86 in1078.9 mb - 0.00 in0.0 mm 0.00 in0.0 mm
07:15 PM 75.0°F23.9°C 65.3°F18.5°C 72% 2.3 mph E3.7 kmh E 2.3 mph3.7 kmh 31.86 in1078.9 mb - 0.00 in0.0 mm 0.00 in0.0 mm
07:20 PM 74.8°F23.8°C 64.4°F18.0°C 70% 3.5 mph E5.6 kmh E 3.5 mph5.6 kmh 31.86 in1078.9 mb - 0.00 in0.0 mm 0.00 in0.0 mm
07:25 PM 74.1°F23.4°C 64.9°F18.3°C 73% 2.3 mph E3.7 kmh E 2.3 mph3.7 kmh 31.86 in1078.9 mb - 0.00 in0.0 mm 0.00 in0.0 mm
07:30 PM 74.1°F23.4°C 64.5°F18.1°C 72% 2.3 mph E3.7 kmh E 3.5 mph5.6 kmh 31.86 in1078.9 mb - 0.00 in0.0 mm 0.00 in0.0 mm
07:35 PM 73.8°F23.2°C 64.6°F18.1°C 73% 2.3 mph E3.7 kmh E 2.3 mph3.7 kmh 31.86 in1078.9 mb - 0.00 in0.0 mm 0.00 in0.0 mm
07:40 PM 74.1°F23.4°C 64.9°F18.3°C 73% 2.3 mph E3.7 kmh E 2.3 mph3.7 kmh 31.86 in1078.9 mb - 0.00 in0.0 mm 0.00 in0.0 mm
07:45 PM 74.0°F23.3°C 64.4°F18.0°C 72% 2.3 mph E3.7 kmh E 2.3 mph3.7 kmh 31.86 in1078.9 mb - 0.00 in0.0 mm 0.00 in0.0 mm
07:50 PM 73.4°F23.0°C 63.8°F17.7°C 72% 2.3 mph E3.7 kmh E 3.5 mph5.6 kmh 31.86 in1078.9 mb - 0.00 in0.0 mm 0.00 in0.0 mm
07:55 PM 73.0°F22.8°C 63.0°F17.2°C 71% 2.3 mph E3.7 kmh E 3.5 mph5.6 kmh 31.86 in1078.9 mb - 0.00 in0.0 mm 0.00 in0.0 mm
08:00 PM 72.5°F22.5°C 62.9°F17.2°C 72% 2.3 mph E3.7 kmh E 3.5 mph5.6 kmh 31.86 in1078.9 mb - 0.00 in0.0 mm 0.00 in0.0 mm
08:10 PM 72.0°F22.2°C 62.5°F16.9°C 72% 2.3 mph E3.7 kmh E 3.5 mph5.6 kmh 31.86 in1078.9 mb - 0.00 in0.0 mm 0.00 in0.0 mm
08:15 PM 71.8°F22.1°C 62.7°F17.1°C 73% 2.3 mph E3.7 kmh E 2.3 mph3.7 kmh 31.86 in1078.9 mb - 0.00 in0.0 mm 0.00 in0.0 mm
08:20 PM 71.6°F22.0°C 61.7°F16.5°C 71% 3.5 mph E5.6 kmh E 3.5 mph5.6 kmh 31.86 in1078.9 mb - 0.00 in0.0 mm 0.00 in0.0 mm
08:25 PM 71.3°F21.8°C 61.0°F16.1°C 70% 3.5 mph E5.6 kmh E 3.5 mph5.6 kmh 31.86 in1078.9 mb - 0.00 in0.0 mm 0.00 in0.0 mm
08:30 PM 71.1°F21.7°C 61.2°F16.2°C 71% 2.3 mph E3.7 kmh E 2.3 mph3.7 kmh 31.86 in1078.9 mb - 0.00 in0.0 mm 0.00 in0.0 mm
08:35 PM 70.9°F21.6°C 61.0°F16.1°C 71% 2.3 mph E3.7 kmh E 2.3 mph3.7 kmh 31.86 in1078.9 mb - 0.00 in0.0 mm 0.00 in0.0 mm
08:40 PM 70.8°F21.6°C 61.3°F16.3°C 72% 2.3 mph ENE3.7 kmh ENE 2.3 mph3.7 kmh 31.86 in1078.9 mb - 0.00 in0.0 mm 0.00 in0.0 mm
08:45 PM 70.5°F21.4°C 60.2°F15.7°C 70% 3.5 mph E5.6 kmh E 3.5 mph5.6 kmh 31.86 in1078.9 mb - 0.00 in0.0 mm 0.00 in0.0 mm
08:50 PM 70.4°F21.3°C 60.1°F15.6°C 70% 2.3 mph E3.7 kmh E 2.3 mph3.7 kmh 31.86 in1078.9 mb - 0.00 in0.0 mm 0.00 in0.0 mm
08:55 PM 70.4°F21.3°C 59.7°F15.4°C 69% 2.3 mph E3.7 kmh E 3.5 mph5.6 kmh 31.86 in1078.9 mb - 0.00 in0.0 mm 0.00 in0.0 mm
09:00 PM 70.2°F21.2°C 60.3°F15.7°C 71% 2.3 mph E3.7 kmh E 2.3 mph3.7 kmh 31.86 in1078.9 mb - 0.00 in0.0 mm 0.00 in0.0 mm
09:10 PM 70.0°F21.1°C 59.3°F15.2°C 69% 2.3 mph E3.7 kmh E 2.3 mph3.7 kmh 31.86 in1078.9 mb - 0.00 in0.0 mm 0.00 in0.0 mm
09:15 PM 69.8°F21.0°C 59.1°F15.1°C 69% 2.3 mph E3.7 kmh E 2.3 mph3.7 kmh 31.86 in1078.9 mb - 0.00 in0.0 mm 0.00 in0.0 mm
09:20 PM 69.8°F21.0°C 59.1°F15.1°C 69% 2.3 mph E3.7 kmh E 2.3 mph3.7 kmh 31.86 in1078.9 mb - 0.00 in0.0 mm 0.00 in0.0 mm
09:25 PM 69.6°F20.9°C 59.4°F15.2°C 70% 2.3 mph E3.7 kmh E 2.3 mph3.7 kmh 31.86 in1078.9 mb - 0.00 in0.0 mm 0.00 in0.0 mm
09:30 PM 69.6°F20.9°C 59.4°F15.2°C 70% 2.3 mph E3.7 kmh E 2.3 mph3.7 kmh 31.86 in1078.9 mb - 0.00 in0.0 mm 0.00 in0.0 mm
09:35 PM 69.6°F20.9°C 59.8°F15.4°C 71% 2.3 mph E3.7 kmh E 2.3 mph3.7 kmh 31.86 in1078.9 mb - 0.00 in0.0 mm 0.00 in0.0 mm
09:40 PM 69.6°F20.9°C 59.8°F15.4°C 71% 2.3 mph E3.7 kmh E 3.5 mph5.6 kmh 31.86 in1078.9 mb - 0.00 in0.0 mm 0.00 in0.0 mm
09:45 PM 69.6°F20.9°C 60.2°F15.7°C 72% 2.3 mph E3.7 kmh E 2.3 mph3.7 kmh 31.86 in1078.9 mb - 0.00 in0.0 mm 0.00 in0.0 mm
09:50 PM 69.6°F20.9°C 59.8°F15.4°C 71% 2.3 mph E3.7 kmh E 2.3 mph3.7 kmh 31.86 in1078.9 mb - 0.00 in0.0 mm 0.00 in0.0 mm
09:55 PM 69.5°F20.8°C 60.1°F15.6°C 72% 2.3 mph ENE3.7 kmh ENE 2.3 mph3.7 kmh 31.86 in1078.9 mb - 0.00 in0.0 mm 0.00 in0.0 mm
10:00 PM 69.3°F20.7°C 60.3°F15.7°C 73% 2.3 mph E3.7 kmh E 2.3 mph3.7 kmh 31.86 in1078.9 mb - 0.00 in0.0 mm 0.00 in0.0 mm
10:10 PM 68.9°F20.5°C 60.2°F15.7°C 74% 2.3 mph E3.7 kmh E 2.3 mph3.7 kmh 31.86 in1078.9 mb - 0.00 in0.0 mm 0.00 in0.0 mm
10:15 PM 68.7°F20.4°C 60.4°F15.8°C 75% 2.3 mph NE3.7 kmh NE 2.3 mph3.7 kmh 31.86 in1078.9 mb - 0.00 in0.0 mm 0.00 in0.0 mm
10:20 PM 68.7°F20.4°C 60.4°F15.8°C 75% 2.3 mph NE3.7 kmh NE 2.3 mph3.7 kmh 31.86 in1078.9 mb - 0.00 in0.0 mm 0.00 in0.0 mm
10:25 PM 68.7°F20.4°C 60.8°F16.0°C 76% 1.2 mph NE1.9 kmh NE 2.3 mph3.7 kmh 31.86 in1078.9 mb - 0.00 in0.0 mm 0.00 in0.0 mm
10:30 PM 68.7°F20.4°C 60.8°F16.0°C 76% 2.3 mph NE3.7 kmh NE 2.3 mph3.7 kmh 31.86 in1078.9 mb - 0.00 in0.0 mm 0.00 in0.0 mm
10:35 PM 68.7°F20.4°C 60.8°F16.0°C 76% 1.2 mph NE1.9 kmh NE 1.2 mph1.9 kmh 31.86 in1078.9 mb - 0.00 in0.0 mm 0.00 in0.0 mm
10:40 PM 68.7°F20.4°C 60.8°F16.0°C 76% 2.3 mph NE3.7 kmh NE 2.3 mph3.7 kmh 31.86 in1078.9 mb - 0.00 in0.0 mm 0.00 in0.0 mm
10:45 PM 68.7°F20.4°C 61.2°F16.2°C 77% 2.3 mph NE3.7 kmh NE 2.3 mph3.7 kmh 31.86 in1078.9 mb - 0.00 in0.0 mm 0.00 in0.0 mm
10:50 PM 68.7°F20.4°C 61.2°F16.2°C 77% 2.3 mph NE3.7 kmh NE 2.3 mph3.7 kmh 31.86 in1078.9 mb - 0.00 in0.0 mm 0.00 in0.0 mm
10:55 PM 68.7°F20.4°C 61.2°F16.2°C 77% 2.3 mph NE3.7 kmh NE 2.3 mph3.7 kmh 31.86 in1078.9 mb - 0.00 in0.0 mm 0.00 in0.0 mm
11:00 PM 68.7°F20.4°C 61.5°F16.4°C 78% 2.3 mph NE3.7 kmh NE 1.2 mph1.9 kmh 31.86 in1078.9 mb - 0.00 in0.0 mm 0.00 in0.0 mm
11:10 PM 68.7°F20.4°C 61.5°F16.4°C 78% 2.3 mph NE3.7 kmh NE 1.2 mph1.9 kmh 31.86 in1078.9 mb - 0.00 in0.0 mm 0.00 in0.0 mm
11:15 PM 68.6°F20.3°C 61.8°F16.6°C 79% 1.2 mph NE1.9 kmh NE 1.2 mph1.9 kmh 31.86 in1078.9 mb - 0.00 in0.0 mm 0.00 in0.0 mm
11:20 PM 68.6°F20.3°C 61.8°F16.6°C 79% 1.2 mph NE1.9 kmh NE 1.2 mph1.9 kmh 31.86 in1078.9 mb - 0.00 in0.0 mm 0.00 in0.0 mm
11:25 PM 68.4°F20.2°C 62.0°F16.7°C 80% 1.2 mph NE1.9 kmh NE 1.2 mph1.9 kmh 31.86 in1078.9 mb - 0.00 in0.0 mm 0.00 in0.0 mm
11:30 PM 68.4°F20.2°C 62.0°F16.7°C 80% 1.2 mph NE1.9 kmh NE 1.2 mph1.9 kmh 31.86 in1078.9 mb - 0.00 in0.0 mm 0.00 in0.0 mm
11:35 PM 68.4°F20.2°C 62.3°F16.8°C 81% 2.3 mph NNE3.7 kmh NNE 3.5 mph5.6 kmh 31.86 in1078.9 mb - 0.00 in0.0 mm 0.00 in0.0 mm
11:40 PM 68.4°F20.2°C 62.3°F16.8°C 81% 1.2 mph NNE1.9 kmh NNE 2.3 mph3.7 kmh 31.86 in1078.9 mb - 0.00 in0.0 mm 0.00 in0.0 mm
11:45 PM 68.9°F20.5°C 62.8°F17.1°C 81% 1.2 mph NNE1.9 kmh NNE 1.2 mph1.9 kmh 31.86 in1078.9 mb - 0.00 in0.0 mm 0.00 in0.0 mm
11:50 PM 69.1°F20.6°C 63.0°F17.2°C 81% 1.2 mph NNE1.9 kmh NNE 1.2 mph1.9 kmh 31.86 in1078.9 mb - 0.00 in0.0 mm 0.00 in0.0 mm
11:55 PM 69.1°F20.6°C 63.0°F17.2°C 81% 1.2 mph NNE1.9 kmh NNE 1.2 mph1.9 kmh 31.86 in1078.9 mb - 0.00 in0.0 mm 0.00 in0.0 mm